Saint Thomas, VI

11:34 PM AST on June 29, 2015 (GMT -0400)
King | | Change Station
CLOSE
Current Station
Airport
Location: St. Thomas,
Elevation: 23 ft
Nearby Weather Stations

Elev 23 ft 18.34 °N, 64.97 °W | Updated 41 minutes ago

Overcast
Overcast
82 °F
Feels Like 86 °F
N
13
Wind Variable Wind from East

Today
High -- | Low -- °F
--% Chance of Precip.
Yesterday
High -- | Low -- °F
Precip. -- in
5:46 AM 6:59 PM
Waxing Gibbous, 95% visible
Pressure 30.12 in
Visibility 10.0 miles
Clouds Overcast 1700 ft
Heat Index 86 °F
Dew Point 71 °F
Humidity 69%
Rainfall 0.00 in
Snow Depth Not available.
UV 0 out of 12
Pollen Not available.
Air Quality Not available.
Flu Activity No Activity
METAR TIST 300253Z 08011KT 10SM OVC017 28/22 A3012 RMK AO2 SLP198 T02780217 50009

More Conditions Fewer Conditions

Pressure 30.12 in
Visibility 10.0 miles
Clouds Overcast 1700 ft
Heat Index 86 °F
Dew Point 71 °F
Humidity 69%
Rainfall 0.00 in
Snow Depth Not available.
UV 0 out of 12
Pollen Not available.
Air Quality Not available.
Flu Activity No Activity
METAR TIST 300253Z 08011KT 10SM OVC017 28/22 A3012 RMK AO2 SLP198 T02780217 50009

More Conditions Fewer Conditions

10-Day Weather Forecast

×

Almanac

Astronomy

Jun. 29, 2015 Rise Set
Actual Time
Civil Twilight
Nautical Twilight
Astronomical Twilight
Moon
Length of Visible Light
Length of Day
Tomorrow will be .
, % of the Moon is Illuminated

Today's Extremes

State Highs State Lows

Community

WunderPhotos

Upload Photos

1,833,955 photos uploaded!

WunderBlogs® & News

Nearby

Air Quality

  Air Quality AQ Index Pollutant
Not available.

Snow Depth

Station Depth Elevation

Earthquake Activity

City Distance Mag. Time & Date
Minimum magnitude displayed is 2.5.

Coastal Water Temperatures

Place Temperature

Stations

Nearby Weather Stations

Station Location Temp. Windchill Dew Point Humidity Wind Precip. Elev Updated Type